createdAt,value
2023-12-03T00:00:16.669Z,9.15
2023-12-03T00:01:50.888Z,8.98
2023-12-03T00:03:24.668Z,9.38
2023-12-03T00:05:00.053Z,10.98
2023-12-03T00:06:33.153Z,7.57
2023-12-03T00:08:07.838Z,10.75
2023-12-03T00:09:41.027Z,8.15
2023-12-03T00:11:15.572Z,11.07
2023-12-03T00:12:48.679Z,11.70
2023-12-03T00:14:24.627Z,11.38
2023-12-03T00:15:57.638Z,9.65
2023-12-03T00:17:32.154Z,11.73
2023-12-03T00:19:05.417Z,9.88
2023-12-03T00:20:39.500Z,10.02
2023-12-03T00:22:12.563Z,7.90
2023-12-03T00:23:47.199Z,11.27
2023-12-03T00:25:20.281Z,10.35
2023-12-03T00:26:54.211Z,9.55
2023-12-03T00:28:27.203Z,12.70
2023-12-03T00:30:03.224Z,10.85
2023-12-03T00:31:36.174Z,11.05
2023-12-03T00:33:10.209Z,10.27
2023-12-03T00:34:43.304Z,10.15
2023-12-03T00:36:17.831Z,7.60
2023-12-03T00:37:50.885Z,10.10
2023-12-03T00:39:25.392Z,8.30
2023-12-03T00:40:59.040Z,12.30
2023-12-03T00:42:33.632Z,11.70
2023-12-03T00:44:07.604Z,10.38
2023-12-03T00:45:42.206Z,8.98
2023-12-03T00:47:17.164Z,7.60
2023-12-03T00:48:50.985Z,9.48
2023-12-03T00:50:25.132Z,7.95
2023-12-03T00:51:59.077Z,9.73
2023-12-03T00:53:33.569Z,9.40
2023-12-03T00:55:06.956Z,10.07
2023-12-03T00:56:40.925Z,9.02
2023-12-03T00:58:13.845Z,7.75
2023-12-03T00:59:48.351Z,8.77
2023-12-03T01:01:23.063Z,9.88
2023-12-03T01:02:57.873Z,11.45
2023-12-03T01:04:30.950Z,10.05
2023-12-03T01:06:05.604Z,10.85
2023-12-03T01:07:38.597Z,9.20
2023-12-03T01:09:12.779Z,12.52
2023-12-03T01:10:46.038Z,9.60
2023-12-03T01:12:20.559Z,10.23
2023-12-03T01:13:53.597Z,9.95
2023-12-03T01:15:28.021Z,10.90
2023-12-03T01:17:03.333Z,9.45
2023-12-03T01:18:37.778Z,8.95
2023-12-03T01:20:12.002Z,9.30
2023-12-03T01:21:46.018Z,9.05
2023-12-03T01:23:19.088Z,11.63
2023-12-03T01:24:53.519Z,10.13
2023-12-03T01:26:26.454Z,10.68
2023-12-03T01:28:00.611Z,13.82
2023-12-03T01:29:33.832Z,8.32
2023-12-03T01:31:09.045Z,6.03
2023-12-03T01:32:44.539Z,10.00
2023-12-03T01:34:17.634Z,11.80
2023-12-03T01:35:51.668Z,9.93
2023-12-03T01:37:26.172Z,9.45
2023-12-03T01:38:59.117Z,10.80
2023-12-03T01:40:33.051Z,10.20
2023-12-03T01:42:06.563Z,11.63
2023-12-03T01:43:49.290Z,9.60
2023-12-03T01:45:22.292Z,11.73
2023-12-03T01:46:59.424Z,11.23
2023-12-03T01:48:34.341Z,14.70
2023-12-03T01:50:12.919Z,11.73
2023-12-03T01:51:47.128Z,8.80
2023-12-03T01:53:21.385Z,15.32
2023-12-03T01:54:56.042Z,13.48
2023-12-03T01:56:30.541Z,12.98
2023-12-03T01:58:03.761Z,9.13
2023-12-03T01:59:38.121Z,9.63
2023-12-03T02:01:11.330Z,10.35
2023-12-03T02:02:45.860Z,7.55
2023-12-03T02:04:21.208Z,10.43
2023-12-03T02:06:03.181Z,12.90
2023-12-03T02:07:37.342Z,7.65
2023-12-03T02:09:10.813Z,9.43
2023-12-03T02:10:45.132Z,8.65
2023-12-03T02:12:19.681Z,7.03
2023-12-03T02:13:53.696Z,10.80
2023-12-03T02:15:27.218Z,10.60
2023-12-03T02:17:01.279Z,14.45
2023-12-03T02:18:34.742Z,8.48
2023-12-03T02:20:11.565Z,10.00
2023-12-03T02:21:45.017Z,11.00
2023-12-03T02:23:20.777Z,10.77
2023-12-03T02:24:54.707Z,11.30
2023-12-03T02:26:27.657Z,12.35
2023-12-03T02:28:02.224Z,11.65
2023-12-03T02:29:36.281Z,10.90
2023-12-03T02:31:09.340Z,13.93
2023-12-03T02:32:43.360Z,9.82
2023-12-03T02:34:18.098Z,10.88
2023-12-03T02:35:51.095Z,17.75
2023-12-03T02:37:25.041Z,12.50
2023-12-03T02:38:59.853Z,10.57
2023-12-03T02:40:34.823Z,11.02
2023-12-03T02:42:07.764Z,10.82
2023-12-03T02:43:41.839Z,11.85
2023-12-03T02:45:15.363Z,11.90
2023-12-03T02:46:49.324Z,12.05
2023-12-03T02:48:22.457Z,10.75
2023-12-03T02:49:56.976Z,15.50
2023-12-03T02:51:31.462Z,15.10
2023-12-03T02:53:04.551Z,13.40
2023-12-03T02:54:41.485Z,14.98
2023-12-03T02:56:14.654Z,13.55
2023-12-03T02:57:49.217Z,13.15
2023-12-03T02:59:22.295Z,13.25
2023-12-03T03:00:56.267Z,11.27
2023-12-03T03:02:29.249Z,11.90
2023-12-03T03:04:03.780Z,15.30
2023-12-03T03:05:36.789Z,12.65
2023-12-03T03:07:10.760Z,11.82
2023-12-03T03:08:44.740Z,13.80
2023-12-03T03:10:19.498Z,14.50
2023-12-03T03:11:54.400Z,12.65
2023-12-03T03:13:27.358Z,11.02
2023-12-03T03:15:01.360Z,13.52
2023-12-03T03:16:36.094Z,13.43
2023-12-03T03:18:10.163Z,12.85
2023-12-03T03:19:44.063Z,13.85
2023-12-03T03:21:18.126Z,12.05
2023-12-03T03:22:51.903Z,13.10
2023-12-03T03:24:25.916Z,13.18
2023-12-03T03:26:00.329Z,11.13
2023-12-03T03:27:34.296Z,11.60
2023-12-03T03:29:08.100Z,12.98
2023-12-03T03:30:42.080Z,13.63
2023-12-03T03:32:15.311Z,12.38
2023-12-03T03:33:49.523Z,13.88
2023-12-03T03:35:23.261Z,12.98
2023-12-03T03:36:57.611Z,15.88
2023-12-03T03:38:31.510Z,12.02
2023-12-03T03:40:05.729Z,13.95
2023-12-03T03:41:41.529Z,16.50
2023-12-03T03:43:15.023Z,16.67
2023-12-03T03:44:49.014Z,13.82
2023-12-03T03:46:22.001Z,11.68
2023-12-03T03:47:56.534Z,12.00
2023-12-03T03:49:29.584Z,12.85
2023-12-03T03:51:03.608Z,11.30
2023-12-03T03:52:36.963Z,18.95
2023-12-03T03:54:10.997Z,13.55
2023-12-03T03:55:43.754Z,19.70
2023-12-03T03:57:20.121Z,15.27
2023-12-03T03:58:52.986Z,14.52
2023-12-03T04:00:26.765Z,15.18
2023-12-03T04:01:59.654Z,17.15
2023-12-03T04:03:34.838Z,15.18
2023-12-03T04:05:08.822Z,13.43
2023-12-03T04:06:45.674Z,16.75
2023-12-03T04:08:18.557Z,13.98
2023-12-03T04:09:52.685Z,15.32
2023-12-03T04:11:26.369Z,14.00
2023-12-03T04:13:00.489Z,15.25
2023-12-03T04:14:34.193Z,12.77
2023-12-03T04:16:08.660Z,16.80
2023-12-03T04:17:42.791Z,16.08
2023-12-03T04:19:15.670Z,17.55
2023-12-03T04:20:49.449Z,15.60
2023-12-03T04:22:25.163Z,16.48
2023-12-03T04:23:58.304Z,12.93
2023-12-03T04:25:32.388Z,15.30
2023-12-03T04:27:05.568Z,13.63
2023-12-03T04:28:43.022Z,17.10
2023-12-03T04:30:15.969Z,15.77
2023-12-03T04:31:50.251Z,16.83
2023-12-03T04:33:23.035Z,15.95
2023-12-03T04:34:57.158Z,16.88
2023-12-03T04:36:30.931Z,15.02
2023-12-03T04:38:04.323Z,14.02
2023-12-03T04:39:38.295Z,15.50
2023-12-03T04:41:11.503Z,13.52
2023-12-03T04:42:45.952Z,13.95
2023-12-03T04:44:20.135Z,15.15
2023-12-03T04:45:53.950Z,15.25
2023-12-03T04:47:26.725Z,14.68
2023-12-03T04:49:00.935Z,15.68
2023-12-03T04:50:33.712Z,16.50
2023-12-03T04:52:07.688Z,14.98
2023-12-03T04:53:40.443Z,14.05
2023-12-03T04:55:14.724Z,13.20
2023-12-03T04:56:47.476Z,15.23
2023-12-03T04:58:21.525Z,16.10
2023-12-03T04:59:56.739Z,16.00
2023-12-03T05:01:29.904Z,15.88
2023-12-03T05:03:03.657Z,14.38
2023-12-03T05:04:36.569Z,14.65
2023-12-03T05:06:10.771Z,19.40
2023-12-03T05:07:43.795Z,14.98
2023-12-03T05:09:17.739Z,16.73
2023-12-03T05:10:51.529Z,13.95
2023-12-03T05:12:24.330Z,17.33
2023-12-03T05:13:58.444Z,15.40
2023-12-03T05:15:32.528Z,12.60
2023-12-03T05:17:06.681Z,15.02
2023-12-03T05:18:42.519Z,19.52
2023-12-03T05:20:15.868Z,12.73
2023-12-03T05:21:49.682Z,16.42
2023-12-03T05:23:22.406Z,13.57
2023-12-03T05:24:56.143Z,15.35
2023-12-03T05:26:30.172Z,15.68
2023-12-03T05:28:02.925Z,18.80
2023-12-03T05:29:36.702Z,16.98
2023-12-03T05:31:10.942Z,14.90
2023-12-03T05:32:45.039Z,19.38
2023-12-03T05:34:17.877Z,14.98
2023-12-03T05:35:52.278Z,17.25
2023-12-03T05:37:29.940Z,17.85
2023-12-03T05:39:05.972Z,18.67
2023-12-03T05:40:39.089Z,14.70
2023-12-03T05:42:14.509Z,17.17
2023-12-03T05:43:48.939Z,23.55
2023-12-03T05:45:22.737Z,17.55
2023-12-03T05:46:58.284Z,17.73
2023-12-03T05:48:32.436Z,17.90
2023-12-03T05:50:08.462Z,17.73
2023-12-03T05:51:45.351Z,16.35
2023-12-03T05:53:20.054Z,15.23
2023-12-03T05:54:53.829Z,17.88
2023-12-03T05:56:28.472Z,17.40
2023-12-03T05:58:02.200Z,20.05
2023-12-03T05:59:36.781Z,22.27
2023-12-03T06:01:11.248Z,20.83
2023-12-03T06:02:46.409Z,17.50
2023-12-03T06:04:21.208Z,17.70
2023-12-03T06:05:55.397Z,20.48
2023-12-03T06:07:28.826Z,18.17
2023-12-03T06:09:03.397Z,16.50
2023-12-03T06:10:36.941Z,22.65
2023-12-03T06:12:11.440Z,19.25
2023-12-03T06:13:44.945Z,20.30
2023-12-03T06:15:19.442Z,18.48
2023-12-03T06:16:53.363Z,18.65
2023-12-03T06:18:30.993Z,17.70
2023-12-03T06:20:05.937Z,21.60
2023-12-03T06:21:39.797Z,22.40
2023-12-03T06:23:17.011Z,20.38
2023-12-03T06:24:51.888Z,20.42
2023-12-03T06:26:26.749Z,18.65
2023-12-03T06:28:00.128Z,20.73
2023-12-03T06:29:34.490Z,19.00
2023-12-03T06:31:08.269Z,18.40
2023-12-03T06:32:42.629Z,22.35
2023-12-03T06:34:18.592Z,18.02
2023-12-03T06:35:52.441Z,21.48
2023-12-03T06:37:27.134Z,18.98
2023-12-03T06:39:00.280Z,21.23
2023-12-03T06:40:34.701Z,19.25
2023-12-03T06:42:08.160Z,19.65
2023-12-03T06:43:42.852Z,21.35
2023-12-03T06:45:17.756Z,20.23
2023-12-03T06:46:51.088Z,20.25
2023-12-03T06:48:25.700Z,21.15
2023-12-03T06:50:00.421Z,18.58
2023-12-03T06:51:35.151Z,17.83
2023-12-03T06:53:08.636Z,16.90
2023-12-03T06:54:44.220Z,20.10
2023-12-03T06:56:17.437Z,19.98
2023-12-03T06:57:52.523Z,17.63
2023-12-03T06:59:26.834Z,17.65
2023-12-03T07:01:00.385Z,16.55
2023-12-03T07:02:34.995Z,19.58
2023-12-03T07:04:09.498Z,20.30
2023-12-03T07:05:44.492Z,17.58
2023-12-03T07:07:18.766Z,23.35
2023-12-03T07:08:52.560Z,20.92
2023-12-03T07:10:26.770Z,20.05
2023-12-03T07:12:00.527Z,19.40
2023-12-03T07:13:34.650Z,19.15
2023-12-03T07:15:08.913Z,20.45
2023-12-03T07:16:43.663Z,19.00
2023-12-03T07:18:17.262Z,20.40
2023-12-03T07:19:52.032Z,19.98
2023-12-03T07:21:27.925Z,22.08
2023-12-03T07:23:01.299Z,19.30
2023-12-03T07:24:36.097Z,21.00
2023-12-03T07:26:12.552Z,19.70
2023-12-03T07:27:48.250Z,16.05
2023-12-03T07:29:21.966Z,18.30
2023-12-03T07:30:56.838Z,22.38
2023-12-03T07:32:30.227Z,18.35
2023-12-03T07:34:05.343Z,19.17
2023-12-03T07:35:39.245Z,17.90
2023-12-03T07:37:15.241Z,21.30
2023-12-03T07:38:48.774Z,16.67
2023-12-03T07:40:23.707Z,17.38
2023-12-03T07:41:57.468Z,17.73
2023-12-03T07:43:32.202Z,18.23
2023-12-03T07:45:06.776Z,20.08
2023-12-03T07:46:41.546Z,22.00
2023-12-03T07:48:15.159Z,18.88
2023-12-03T07:49:49.967Z,22.00
2023-12-03T07:51:23.651Z,15.88
2023-12-03T07:53:00.317Z,20.83
2023-12-03T07:54:33.957Z,20.83
2023-12-03T07:56:10.001Z,20.23
2023-12-03T07:57:43.461Z,18.08
2023-12-03T07:59:17.803Z,19.58
2023-12-03T08:00:51.236Z,17.63
2023-12-03T08:02:25.924Z,19.02
2023-12-03T08:03:59.466Z,22.17
2023-12-03T08:05:34.305Z,22.50
2023-12-03T08:07:08.618Z,18.50
2023-12-03T08:08:44.816Z,18.98
2023-12-03T08:10:18.042Z,22.63
2023-12-03T08:11:52.405Z,21.60
2023-12-03T08:13:28.714Z,20.02
2023-12-03T08:15:03.001Z,18.30
2023-12-03T08:16:36.332Z,18.73
2023-12-03T08:18:11.067Z,20.60
2023-12-03T08:19:44.781Z,24.10
2023-12-03T08:21:19.886Z,16.73
2023-12-03T08:22:53.323Z,25.33
2023-12-03T08:24:29.537Z,24.17
2023-12-03T08:26:07.912Z,20.48
2023-12-03T08:27:41.466Z,22.08
2023-12-03T08:29:16.330Z,19.95
2023-12-03T08:30:50.077Z,19.15
2023-12-03T08:32:24.622Z,18.60
2023-12-03T08:33:58.673Z,20.70
2023-12-03T08:35:34.041Z,19.95
2023-12-03T08:37:07.810Z,21.10
2023-12-03T08:38:44.697Z,21.92
2023-12-03T08:40:21.644Z,19.33
2023-12-03T08:41:55.510Z,24.50
2023-12-03T08:43:30.672Z,20.60
2023-12-03T08:45:05.505Z,19.75
2023-12-03T08:46:40.303Z,18.17
2023-12-03T08:48:13.821Z,18.02
2023-12-03T08:49:48.313Z,20.55
2023-12-03T08:51:22.044Z,20.85
2023-12-03T08:52:57.024Z,17.13
2023-12-03T08:54:32.286Z,21.35
2023-12-03T08:56:12.496Z,21.85
2023-12-03T08:57:47.348Z,20.27
2023-12-03T08:59:24.419Z,23.70
2023-12-03T09:00:59.159Z,22.17
2023-12-03T09:02:33.418Z,28.30
2023-12-03T09:04:08.553Z,20.13
2023-12-03T09:05:42.498Z,20.30
2023-12-03T09:07:17.781Z,26.17
2023-12-03T09:08:51.514Z,24.13
2023-12-03T09:10:26.315Z,19.58
2023-12-03T09:12:01.506Z,19.45
2023-12-03T09:13:36.966Z,22.90
2023-12-03T09:15:11.692Z,24.38
2023-12-03T09:16:46.690Z,23.00
2023-12-03T09:18:20.570Z,19.90
2023-12-03T09:19:55.482Z,21.00
2023-12-03T09:21:28.777Z,21.83
2023-12-03T09:23:03.824Z,22.83
2023-12-03T09:24:37.940Z,22.55
2023-12-03T09:26:12.624Z,19.10
2023-12-03T09:27:47.318Z,20.90
2023-12-03T09:29:22.610Z,20.73
2023-12-03T09:30:56.424Z,20.83
2023-12-03T09:32:30.963Z,23.35
2023-12-03T09:34:05.045Z,24.52
2023-12-03T09:35:40.273Z,25.33
2023-12-03T09:37:14.918Z,24.15
2023-12-03T09:38:49.918Z,22.83
2023-12-03T09:40:24.106Z,22.75
2023-12-03T09:42:03.611Z,27.33
2023-12-03T09:43:42.325Z,23.50
2023-12-03T09:45:20.955Z,24.58
2023-12-03T09:46:55.756Z,23.33
2023-12-03T09:48:35.862Z,25.38
2023-12-03T09:50:13.686Z,24.85
2023-12-03T09:51:49.246Z,25.10
2023-12-03T09:53:25.671Z,27.08
2023-12-03T09:55:00.445Z,24.73
2023-12-03T09:56:36.706Z,25.92
2023-12-03T09:58:12.052Z,23.90
2023-12-03T09:59:49.513Z,27.70
2023-12-03T10:01:25.220Z,26.55
2023-12-03T10:03:00.464Z,23.63
2023-12-03T10:04:34.412Z,25.42
2023-12-03T10:06:10.918Z,25.50
2023-12-03T10:07:49.573Z,25.92
2023-12-03T10:09:25.400Z,27.58
2023-12-03T10:11:01.406Z,30.65
2023-12-03T10:12:43.374Z,25.00
2023-12-03T10:14:20.484Z,25.40
2023-12-03T10:15:55.547Z,24.25
2023-12-03T10:17:30.994Z,25.77
2023-12-03T10:19:04.977Z,28.95
2023-12-03T10:20:42.377Z,27.23
2023-12-03T10:22:16.861Z,24.13
2023-12-03T10:24:02.563Z,24.33
2023-12-03T10:25:38.395Z,27.77
2023-12-03T10:27:13.161Z,27.98
2023-12-03T10:28:48.460Z,28.77
2023-12-03T10:30:22.568Z,25.38
2023-12-03T10:31:59.626Z,24.67
2023-12-03T10:33:33.423Z,24.52
2023-12-03T10:35:10.884Z,27.10
2023-12-03T10:36:45.652Z,24.20
2023-12-03T10:38:20.069Z,23.23
2023-12-03T10:39:54.955Z,27.45
2023-12-03T10:41:30.655Z,28.63
2023-12-03T10:43:04.725Z,24.92
2023-12-03T10:44:41.587Z,29.73
2023-12-03T10:46:16.603Z,24.38
2023-12-03T10:47:55.444Z,34.47
2023-12-03T10:49:33.277Z,27.65
2023-12-03T10:51:10.750Z,27.50
2023-12-03T10:52:44.707Z,32.03
2023-12-03T10:54:19.805Z,34.92
2023-12-03T10:55:55.087Z,30.83
2023-12-03T10:57:31.810Z,28.60
2023-12-03T10:59:11.778Z,27.67
2023-12-03T11:00:52.677Z,26.73
2023-12-03T11:02:30.892Z,30.08
2023-12-03T11:04:14.323Z,26.85
2023-12-03T11:05:52.449Z,25.77
2023-12-03T11:07:27.211Z,24.95
2023-12-03T11:09:00.959Z,32.20
2023-12-03T11:10:36.423Z,31.17
2023-12-03T11:12:10.025Z,25.25
2023-12-03T11:13:47.435Z,30.58
2023-12-03T11:15:22.908Z,31.70
2023-12-03T11:17:09.817Z,30.55
2023-12-03T11:18:55.997Z,28.55
2023-12-03T11:20:35.367Z,24.83
2023-12-03T11:22:21.935Z,29.88
2023-12-03T11:24:17.772Z,32.67
2023-12-03T11:25:57.552Z,28.88
2023-12-03T11:27:31.332Z,24.85
2023-12-03T11:29:06.831Z,27.42
2023-12-03T11:30:42.218Z,30.08
2023-12-03T11:32:17.249Z,29.02
2023-12-03T11:33:57.995Z,31.10
2023-12-03T11:35:34.593Z,27.75
2023-12-03T11:37:11.007Z,30.83
2023-12-03T11:38:46.065Z,28.15
2023-12-03T11:40:35.410Z,35.70
2023-12-03T11:42:13.662Z,32.10
2023-12-03T11:43:50.091Z,29.75
2023-12-03T11:45:27.300Z,30.20
2023-12-03T11:47:08.413Z,28.58
2023-12-03T11:48:44.197Z,28.95
2023-12-03T11:50:19.010Z,31.23
2023-12-03T11:51:55.291Z,29.40
2023-12-03T11:53:41.025Z,30.50
2023-12-03T11:55:20.969Z,29.80
2023-12-03T11:56:56.380Z,35.50
2023-12-03T11:58:31.142Z,31.15
2023-12-03T12:00:09.363Z,29.50
2023-12-03T12:01:43.807Z,32.72
2023-12-03T12:03:19.148Z,31.90
2023-12-03T12:04:53.086Z,27.83
2023-12-03T12:06:29.406Z,30.27
2023-12-03T12:08:07.211Z,28.33
2023-12-03T12:09:40.870Z,28.25
2023-12-03T12:11:15.389Z,34.30
2023-12-03T12:12:49.885Z,37.70
2023-12-03T12:14:24.948Z,31.27
2023-12-03T12:15:59.133Z,32.72
2023-12-03T12:17:34.462Z,29.67
2023-12-03T12:19:09.869Z,30.48
2023-12-03T12:20:44.401Z,31.48
2023-12-03T12:22:20.121Z,30.90
2023-12-03T12:23:56.228Z,30.20
2023-12-03T12:25:34.221Z,26.80
2023-12-03T12:27:08.273Z,31.88
2023-12-03T12:28:44.442Z,33.15
2023-12-03T12:30:30.944Z,29.27
2023-12-03T12:32:10.658Z,35.30
2023-12-03T12:33:44.830Z,35.85
2023-12-03T12:35:19.989Z,30.50
2023-12-03T12:37:04.340Z,29.35
2023-12-03T12:38:46.445Z,27.35
2023-12-03T12:40:21.384Z,32.75
2023-12-03T12:41:58.935Z,26.33
2023-12-03T12:43:35.294Z,25.45
2023-12-03T12:45:28.952Z,31.67
2023-12-03T12:47:05.118Z,30.00
2023-12-03T12:48:41.912Z,36.83
2023-12-03T12:50:18.695Z,32.58
2023-12-03T12:51:53.793Z,29.20
2023-12-03T12:53:28.884Z,32.10
2023-12-03T12:55:07.688Z,32.17
2023-12-03T12:56:47.690Z,29.38
2023-12-03T12:58:23.359Z,28.85
2023-12-03T12:59:58.344Z,28.80
2023-12-03T13:01:34.310Z,28.35
2023-12-03T13:03:09.365Z,29.17
2023-12-03T13:04:43.627Z,27.83
2023-12-03T13:06:18.874Z,29.70
2023-12-03T13:07:53.826Z,30.60
2023-12-03T13:09:28.873Z,28.92
2023-12-03T13:11:04.649Z,35.15
2023-12-03T13:12:41.969Z,35.17
2023-12-03T13:14:15.245Z,34.72
2023-12-03T13:15:50.666Z,28.63
2023-12-03T13:17:27.952Z,28.85
2023-12-03T13:19:01.645Z,32.08
2023-12-03T13:20:36.702Z,26.58
2023-12-03T13:22:10.652Z,26.08
2023-12-03T13:23:46.278Z,28.38
2023-12-03T13:25:21.596Z,32.90
2023-12-03T13:26:56.934Z,31.02
2023-12-03T13:28:31.851Z,31.80
2023-12-03T13:30:09.177Z,30.17
2023-12-03T13:31:43.253Z,27.67
2023-12-03T13:33:18.585Z,29.10
2023-12-03T13:34:53.216Z,28.55
2023-12-03T13:36:29.031Z,30.80
2023-12-03T13:38:04.091Z,33.60
2023-12-03T13:39:39.234Z,30.73
2023-12-03T13:41:13.109Z,28.38
2023-12-03T13:42:54.264Z,30.63
2023-12-03T13:44:29.286Z,31.63
2023-12-03T13:46:04.654Z,26.80
2023-12-03T13:47:39.105Z,31.63
2023-12-03T13:49:14.071Z,29.58
2023-12-03T13:50:48.667Z,37.40
2023-12-03T13:52:22.432Z,30.60
2023-12-03T13:53:57.269Z,33.13
2023-12-03T13:55:30.857Z,29.88
2023-12-03T13:57:05.786Z,30.75
2023-12-03T13:58:39.548Z,28.75
2023-12-03T14:00:17.736Z,29.05
2023-12-03T14:01:53.472Z,30.55
2023-12-03T14:03:27.467Z,27.45
2023-12-03T14:05:12.376Z,27.73
2023-12-03T14:06:57.402Z,28.60
2023-12-03T14:08:31.271Z,32.03
2023-12-03T14:10:07.931Z,29.00
2023-12-03T14:11:41.754Z,28.80
2023-12-03T14:13:17.161Z,36.10
2023-12-03T14:14:51.470Z,29.13
2023-12-03T14:16:27.510Z,27.45
2023-12-03T14:18:01.179Z,30.65
2023-12-03T14:19:36.504Z,28.60
2023-12-03T14:21:10.651Z,31.25
2023-12-03T14:22:45.303Z,27.10
2023-12-03T14:24:19.837Z,36.10
2023-12-03T14:25:55.284Z,30.15
2023-12-03T14:27:29.361Z,27.55
2023-12-03T14:29:04.863Z,31.52
2023-12-03T14:30:38.707Z,27.58
2023-12-03T14:32:15.286Z,29.50
2023-12-03T14:33:49.806Z,30.73
2023-12-03T14:35:24.596Z,30.50
2023-12-03T14:36:58.633Z,31.10
2023-12-03T14:38:34.481Z,32.30
2023-12-03T14:40:15.078Z,31.52
2023-12-03T14:41:49.069Z,30.25
2023-12-03T14:43:24.044Z,32.47
2023-12-03T14:44:58.720Z,31.77
2023-12-03T14:46:34.684Z,35.22
2023-12-03T14:48:09.670Z,32.92
2023-12-03T14:49:44.785Z,39.10
2023-12-03T14:51:19.790Z,33.60
2023-12-03T14:52:54.756Z,37.08
2023-12-03T14:54:28.424Z,35.30
2023-12-03T14:56:03.294Z,42.28
2023-12-03T14:57:38.545Z,32.13
2023-12-03T14:59:12.184Z,31.30
2023-12-03T15:00:47.025Z,32.78
2023-12-03T15:02:20.963Z,35.13
2023-12-03T15:03:58.101Z,35.78
2023-12-03T15:05:32.074Z,33.25
2023-12-03T15:07:07.221Z,42.00
2023-12-03T15:08:40.743Z,32.67
2023-12-03T15:10:18.019Z,35.88
2023-12-03T15:11:52.028Z,36.75
2023-12-03T15:13:27.091Z,48.90
2023-12-03T15:15:01.533Z,41.78
2023-12-03T15:16:36.925Z,33.40
2023-12-03T15:18:10.618Z,36.88
2023-12-03T15:19:46.687Z,35.38
2023-12-03T15:21:21.720Z,35.70
2023-12-03T15:22:57.033Z,33.03
2023-12-03T15:24:31.658Z,39.00
2023-12-03T15:26:07.097Z,34.97
2023-12-03T15:27:42.395Z,30.75
2023-12-03T15:29:16.696Z,36.50
2023-12-03T15:30:51.665Z,31.65
2023-12-03T15:32:26.570Z,36.03
2023-12-03T15:34:02.774Z,37.35
2023-12-03T15:35:38.941Z,36.85
2023-12-03T15:37:14.510Z,37.50
2023-12-03T15:38:49.343Z,35.88
2023-12-03T15:40:24.671Z,39.63
2023-12-03T15:41:58.822Z,34.80
2023-12-03T15:43:40.817Z,40.20
2023-12-03T15:45:19.854Z,35.33
2023-12-03T15:46:54.949Z,34.70
2023-12-03T15:48:31.581Z,33.78
2023-12-03T15:50:06.678Z,36.53
2023-12-03T15:51:43.411Z,36.25
2023-12-03T15:53:17.524Z,33.65
2023-12-03T15:54:53.122Z,34.88
2023-12-03T15:56:27.511Z,35.63
2023-12-03T15:58:02.931Z,34.40
2023-12-03T15:59:38.160Z,34.97
2023-12-03T16:01:13.391Z,39.05
2023-12-03T16:02:48.791Z,41.53
2023-12-03T16:04:23.341Z,40.55
2023-12-03T16:05:58.412Z,38.20
2023-12-03T16:07:34.001Z,38.28
2023-12-03T16:09:09.829Z,37.65
2023-12-03T16:10:43.953Z,37.20
2023-12-03T16:12:19.688Z,39.03
2023-12-03T16:13:54.480Z,44.33
2023-12-03T16:15:29.148Z,45.60
2023-12-03T16:17:06.073Z,47.10
2023-12-03T16:18:41.597Z,41.35
2023-12-03T16:20:16.268Z,43.90
2023-12-03T16:21:52.373Z,40.95
2023-12-03T16:23:27.933Z,41.05
2023-12-03T16:25:03.630Z,41.03
2023-12-03T16:26:38.029Z,38.63
2023-12-03T16:28:13.201Z,41.05
2023-12-03T16:29:47.270Z,37.85
2023-12-03T16:31:22.604Z,41.45
2023-12-03T16:32:57.142Z,41.25
2023-12-03T16:34:32.176Z,45.80
2023-12-03T16:36:08.032Z,43.75
2023-12-03T16:37:41.730Z,40.15
2023-12-03T16:39:17.971Z,42.08
2023-12-03T16:40:52.965Z,42.08
2023-12-03T16:42:29.260Z,40.63
2023-12-03T16:44:06.378Z,40.53
2023-12-03T16:45:41.122Z,43.00
2023-12-03T16:47:14.387Z,39.88
2023-12-03T16:48:51.029Z,37.03
2023-12-03T16:50:25.102Z,38.42
2023-12-03T16:52:00.050Z,39.97
2023-12-03T16:53:33.745Z,37.60
2023-12-03T16:55:11.061Z,32.97
2023-12-03T16:56:45.204Z,31.38
2023-12-03T16:58:20.675Z,29.25
2023-12-03T16:59:54.119Z,29.35
2023-12-03T17:01:28.534Z,32.60
2023-12-03T17:03:02.639Z,31.13
2023-12-03T17:04:39.586Z,31.52
2023-12-03T17:06:13.481Z,33.22
2023-12-03T17:07:48.154Z,34.85
2023-12-03T17:09:22.042Z,31.00
2023-12-03T17:10:59.033Z,33.55
2023-12-03T17:12:44.091Z,38.60
2023-12-03T17:14:22.776Z,37.05
2023-12-03T17:15:56.459Z,32.75
2023-12-03T17:17:31.231Z,31.60
2023-12-03T17:19:04.814Z,32.67
2023-12-03T17:20:39.937Z,32.60
2023-12-03T17:22:13.718Z,34.33
2023-12-03T17:23:48.653Z,38.40
2023-12-03T17:25:21.877Z,35.17
2023-12-03T17:26:59.421Z,38.95
2023-12-03T17:28:32.895Z,39.10
2023-12-03T17:30:09.692Z,38.50
2023-12-03T17:31:44.038Z,35.30
2023-12-03T17:33:20.276Z,38.55
2023-12-03T17:34:54.416Z,36.70
2023-12-03T17:36:29.395Z,36.13
2023-12-03T17:38:02.888Z,33.83
2023-12-03T17:39:39.505Z,34.40
2023-12-03T17:41:12.707Z,35.60
2023-12-03T17:42:48.710Z,37.08
2023-12-03T17:44:23.574Z,33.20
2023-12-03T17:45:58.051Z,34.40
2023-12-03T17:47:33.782Z,35.40
2023-12-03T17:49:08.055Z,34.90
2023-12-03T17:50:42.819Z,30.95
2023-12-03T17:52:16.536Z,30.92
2023-12-03T17:53:51.355Z,32.30
2023-12-03T17:55:24.737Z,29.70
2023-12-03T17:56:59.711Z,37.97
2023-12-03T17:58:34.441Z,35.45
2023-12-03T18:00:09.891Z,44.05
2023-12-03T18:01:43.669Z,39.67
2023-12-03T18:03:19.242Z,41.25
2023-12-03T18:04:52.539Z,40.08
2023-12-03T18:06:27.690Z,41.20
2023-12-03T18:08:01.977Z,37.47
2023-12-03T18:09:37.908Z,39.67
2023-12-03T18:11:11.719Z,39.40
2023-12-03T18:12:46.758Z,47.17
2023-12-03T18:14:24.303Z,47.55
2023-12-03T18:15:58.118Z,46.75
2023-12-03T18:17:32.680Z,46.17
2023-12-03T18:19:07.738Z,45.00
2023-12-03T18:20:43.110Z,39.80
2023-12-03T18:22:17.398Z,41.05
2023-12-03T18:23:51.272Z,37.05
2023-12-03T18:25:25.528Z,36.75
2023-12-03T18:26:59.401Z,35.25
2023-12-03T18:28:34.273Z,36.00
2023-12-03T18:30:10.493Z,38.10
2023-12-03T18:31:46.713Z,39.47
2023-12-03T18:33:21.237Z,36.90
2023-12-03T18:34:55.649Z,34.45
2023-12-03T18:36:29.174Z,38.95
2023-12-03T18:38:03.985Z,38.03
2023-12-03T18:39:38.508Z,37.85
2023-12-03T18:41:13.190Z,32.80
2023-12-03T18:42:46.487Z,39.08
2023-12-03T18:44:22.195Z,41.88
2023-12-03T18:45:59.647Z,39.65
2023-12-03T18:47:34.403Z,35.90
2023-12-03T18:49:09.140Z,29.00
2023-12-03T18:50:42.283Z,36.30
2023-12-03T18:52:17.246Z,36.40
2023-12-03T18:53:50.389Z,37.75
2023-12-03T18:55:24.607Z,42.22
2023-12-03T18:56:58.302Z,37.58
2023-12-03T18:58:33.169Z,33.38
2023-12-03T19:00:07.732Z,30.00
2023-12-03T19:01:43.894Z,37.40
2023-12-03T19:03:17.974Z,33.58
2023-12-03T19:04:53.233Z,36.03
2023-12-03T19:06:26.775Z,34.83
2023-12-03T19:08:01.652Z,28.50
2023-12-03T19:09:36.634Z,29.90
2023-12-03T19:11:11.945Z,31.35
2023-12-03T19:12:45.232Z,34.78
2023-12-03T19:14:25.463Z,27.13
2023-12-03T19:15:59.106Z,30.42
2023-12-03T19:17:35.909Z,32.20
2023-12-03T19:19:10.481Z,32.55
2023-12-03T19:20:44.055Z,28.50
2023-12-03T19:22:19.227Z,32.38
2023-12-03T19:23:55.434Z,30.23
2023-12-03T19:25:29.022Z,30.80
2023-12-03T19:27:03.476Z,26.98
2023-12-03T19:28:37.206Z,26.48
2023-12-03T19:30:14.049Z,30.48
2023-12-03T19:31:49.837Z,26.15
2023-12-03T19:33:26.081Z,25.42
2023-12-03T19:35:01.088Z,27.30
2023-12-03T19:36:36.655Z,30.67
2023-12-03T19:38:13.227Z,29.85
2023-12-03T19:39:46.725Z,23.20
2023-12-03T19:41:21.271Z,26.70
2023-12-03T19:42:54.933Z,27.92
2023-12-03T19:44:29.975Z,24.45
2023-12-03T19:46:03.165Z,27.02
2023-12-03T19:47:38.694Z,26.40
2023-12-03T19:49:14.051Z,28.30
2023-12-03T19:50:48.529Z,29.95
2023-12-03T19:52:22.233Z,31.55
2023-12-03T19:53:56.812Z,31.40
2023-12-03T19:55:30.807Z,27.10
2023-12-03T19:57:06.417Z,27.70
2023-12-03T19:58:39.693Z,26.40
2023-12-03T20:00:15.819Z,33.97
2023-12-03T20:01:49.402Z,27.90
2023-12-03T20:03:24.076Z,25.98
2023-12-03T20:07:48.680Z,25.55
2023-12-03T20:12:16.563Z,27.63
2023-12-03T20:13:51.249Z,27.88
2023-12-03T20:15:28.755Z,30.88
2023-12-03T20:17:12.708Z,27.83
2023-12-03T20:18:45.909Z,30.52
2023-12-03T20:20:21.041Z,27.52
2023-12-03T20:21:55.111Z,29.98
2023-12-03T20:23:29.797Z,30.55
2023-12-03T20:25:06.583Z,30.45
2023-12-03T20:26:40.887Z,25.13
2023-12-03T20:28:16.542Z,28.23
2023-12-03T20:29:49.825Z,33.58
2023-12-03T20:31:26.472Z,32.60
2023-12-03T20:33:01.330Z,31.13